createdAt,value
2023-02-28T00:00:37.133Z,-2.20
2023-02-28T00:00:37.693Z,-2.20
2023-02-28T00:03:04.532Z,-1.21
2023-02-28T00:05:31.495Z,-1.31
2023-02-28T00:05:37.655Z,-1.31
2023-02-28T00:07:57.916Z,-2.07
2023-02-28T00:10:29.001Z,-1.76
2023-02-28T00:10:37.662Z,-1.76
2023-02-28T00:13:00.161Z,-1.77
2023-02-28T00:15:27.344Z,-1.92
2023-02-28T00:15:37.687Z,-1.92
2023-02-28T00:17:53.803Z,-1.97
2023-02-28T00:20:20.715Z,-1.97
2023-02-28T00:20:37.682Z,-1.97
2023-02-28T00:22:50.244Z,-2.01
2023-02-28T00:25:19.590Z,-2.03
2023-02-28T00:25:37.646Z,-2.03
2023-02-28T00:27:46.422Z,-2.56
2023-02-28T00:30:16.206Z,-1.87
2023-02-28T00:30:37.726Z,-1.87
2023-02-28T00:32:42.761Z,-1.97
2023-02-28T00:35:10.326Z,-1.88
2023-02-28T00:35:37.690Z,-1.88
2023-02-28T00:37:36.861Z,-1.83
2023-02-28T00:40:07.191Z,-2.13
2023-02-28T00:40:37.678Z,-2.13
2023-02-28T00:42:36.745Z,-2.00
2023-02-28T00:45:07.123Z,-1.70
2023-02-28T00:45:37.674Z,-1.70
2023-02-28T00:47:33.569Z,-1.68
2023-02-28T00:50:00.731Z,-1.81
2023-02-28T00:50:37.694Z,-1.81
2023-02-28T00:52:27.454Z,-2.41
2023-02-28T00:54:53.921Z,-2.38
2023-02-28T00:55:37.651Z,-2.38
2023-02-28T00:57:20.363Z,-2.27
2023-02-28T00:59:46.744Z,-2.69
2023-02-28T01:00:37.692Z,-2.69
2023-02-28T01:02:13.223Z,-2.38
2023-02-28T01:04:39.667Z,-2.24
2023-02-28T01:05:37.672Z,-2.24
2023-02-28T01:07:06.156Z,-1.92
2023-02-28T01:09:32.588Z,-2.34
2023-02-28T01:10:37.677Z,-2.34
2023-02-28T01:11:59.102Z,-2.21
2023-02-28T01:14:25.464Z,-2.11
2023-02-28T01:15:37.697Z,-2.11
2023-02-28T01:16:52.631Z,-2.10
2023-02-28T01:19:18.999Z,-2.49
2023-02-28T01:20:37.682Z,-2.49
2023-02-28T01:21:45.445Z,-1.90
2023-02-28T01:24:11.833Z,-1.89
2023-02-28T01:25:37.805Z,-1.89
2023-02-28T01:26:38.216Z,-2.50
2023-02-28T01:29:04.669Z,-3.01
2023-02-28T01:30:37.710Z,-3.01
2023-02-28T01:31:31.361Z,-1.95
2023-02-28T01:33:58.055Z,-2.50
2023-02-28T01:35:37.721Z,-2.50
2023-02-28T01:36:25.574Z,-1.94
2023-02-28T01:38:52.461Z,-1.91
2023-02-28T01:40:37.686Z,-1.91
2023-02-28T01:41:23.240Z,-1.81
2023-02-28T01:43:49.550Z,-1.79
2023-02-28T01:45:37.662Z,-1.79
2023-02-28T01:46:16.382Z,-2.01
2023-02-28T01:48:52.437Z,-1.91
2023-02-28T01:50:37.698Z,-1.91
2023-02-28T01:51:23.794Z,-2.07
2023-02-28T01:53:54.373Z,-2.43
2023-02-28T01:55:37.678Z,-2.43
2023-02-28T01:56:28.256Z,-1.98
2023-02-28T01:58:55.272Z,-2.27
2023-02-28T02:00:37.690Z,-2.27
2023-02-28T02:01:23.390Z,-2.52
2023-02-28T02:03:56.119Z,-2.26
2023-02-28T02:05:37.670Z,-2.26
2023-02-28T02:06:25.723Z,-1.83
2023-02-28T02:08:53.315Z,-1.90
2023-02-28T02:10:37.679Z,-1.90
2023-02-28T02:11:21.733Z,-1.98
2023-02-28T02:14:00.463Z,-2.21
2023-02-28T02:15:37.668Z,-2.21
2023-02-28T02:16:38.291Z,-2.32
2023-02-28T02:19:24.628Z,-1.88
2023-02-28T02:20:37.692Z,-1.88
2023-02-28T02:22:09.847Z,-1.81
2023-02-28T02:24:58.208Z,-1.85
2023-02-28T02:25:37.665Z,-1.85
2023-02-28T02:27:51.535Z,-1.91
2023-02-28T02:30:24.023Z,-2.10
2023-02-28T02:30:37.672Z,-2.10
2023-02-28T02:32:50.311Z,-2.16
2023-02-28T02:35:27.372Z,-2.79
2023-02-28T02:35:37.724Z,-2.79
2023-02-28T02:38:33.752Z,-2.75
2023-02-28T02:40:37.703Z,-2.75
2023-02-28T02:41:34.314Z,-2.28
2023-02-28T02:44:13.135Z,-2.63
2023-02-28T02:45:37.684Z,-2.63
2023-02-28T02:46:45.004Z,-2.53
2023-02-28T02:49:18.271Z,-2.33
2023-02-28T02:50:37.687Z,-2.33
2023-02-28T02:51:47.353Z,-2.67
2023-02-28T02:54:29.560Z,-2.46
2023-02-28T02:55:37.681Z,-2.46
2023-02-28T02:56:59.886Z,-2.83
2023-02-28T02:59:29.233Z,-3.06
2023-02-28T03:00:37.731Z,-3.06
2023-02-28T03:02:02.364Z,-3.17
2023-02-28T03:04:35.982Z,-3.21
2023-02-28T03:05:37.661Z,-3.21
2023-02-28T03:07:02.376Z,-2.87
2023-02-28T03:09:28.784Z,-2.98
2023-02-28T03:10:37.660Z,-2.98
2023-02-28T03:11:57.551Z,-3.33
2023-02-28T03:14:23.906Z,-3.12
2023-02-28T03:15:37.682Z,-3.12
2023-02-28T03:17:21.667Z,-3.14
2023-02-28T03:20:14.811Z,-3.72
2023-02-28T03:20:37.685Z,-3.72
2023-02-28T03:22:53.360Z,-3.01
2023-02-28T03:25:38.892Z,-3.59
2023-02-28T03:25:39.037Z,-3.59
2023-02-28T03:28:18.792Z,-3.47
2023-02-28T03:30:37.650Z,-3.47
2023-02-28T03:31:20.171Z,-3.43
2023-02-28T03:33:59.259Z,-3.70
2023-02-28T03:35:37.709Z,-3.70
2023-02-28T03:36:31.088Z,-3.82
2023-02-28T03:39:07.001Z,-4.05
2023-02-28T03:40:37.703Z,-4.05
2023-02-28T03:41:42.895Z,-3.73
2023-02-28T03:44:16.530Z,-5.35
2023-02-28T03:45:37.764Z,-5.35
2023-02-28T03:46:53.778Z,-3.83
2023-02-28T03:49:25.993Z,-3.69
2023-02-28T03:50:37.696Z,-3.69
2023-02-28T03:51:54.856Z,-3.41
2023-02-28T03:54:29.525Z,-3.90
2023-02-28T03:55:37.689Z,-3.90
2023-02-28T03:57:32.105Z,-3.45
2023-02-28T04:00:07.762Z,-3.89
2023-02-28T04:00:37.701Z,-3.89
2023-02-28T04:02:34.518Z,-3.44
2023-02-28T04:05:01.871Z,-3.49
2023-02-28T04:05:37.690Z,-3.49
2023-02-28T04:07:31.805Z,-3.27
2023-02-28T04:09:58.853Z,-3.48
2023-02-28T04:10:37.697Z,-3.48
2023-02-28T04:12:26.139Z,-3.68
2023-02-28T04:14:52.539Z,-3.69
2023-02-28T04:15:37.711Z,-3.69
2023-02-28T04:17:19.709Z,-3.22
2023-02-28T04:19:46.197Z,-3.00
2023-02-28T04:20:37.699Z,-3.00
2023-02-28T04:22:12.545Z,-2.98
2023-02-28T04:24:42.311Z,-3.22
2023-02-28T04:25:37.706Z,-3.22
2023-02-28T04:27:09.786Z,-3.01
2023-02-28T04:29:36.831Z,-3.00
2023-02-28T04:30:37.680Z,-3.00
2023-02-28T04:32:03.822Z,-3.44
2023-02-28T04:34:32.950Z,-3.36
2023-02-28T04:35:37.728Z,-3.36
2023-02-28T04:37:12.440Z,-2.94
2023-02-28T04:39:40.069Z,-2.91
2023-02-28T04:40:37.692Z,-2.91
2023-02-28T04:42:06.878Z,-3.14
2023-02-28T04:44:33.266Z,-3.23
2023-02-28T04:45:37.812Z,-3.23
2023-02-28T04:46:59.680Z,-3.44
2023-02-28T04:49:26.255Z,-3.63
2023-02-28T04:50:37.673Z,-3.63
2023-02-28T04:51:53.791Z,-3.59
2023-02-28T04:54:20.223Z,-3.78
2023-02-28T04:55:37.715Z,-3.78
2023-02-28T04:56:46.722Z,-3.09
2023-02-28T04:59:13.126Z,-3.36
2023-02-28T05:00:37.702Z,-3.36
2023-02-28T05:01:39.502Z,-3.26
2023-02-28T05:04:05.924Z,-3.80
2023-02-28T05:05:37.683Z,-3.80
2023-02-28T05:06:34.742Z,-3.11
2023-02-28T05:09:01.929Z,-3.78
2023-02-28T05:10:37.695Z,-3.78
2023-02-28T05:11:36.947Z,-3.97
2023-02-28T05:14:11.267Z,-3.13
2023-02-28T05:15:37.675Z,-3.13
2023-02-28T05:16:37.772Z,-4.43
2023-02-28T05:19:04.332Z,-3.21
2023-02-28T05:20:37.696Z,-3.21
2023-02-28T05:21:34.067Z,-3.77
2023-02-28T05:24:10.513Z,-3.51
2023-02-28T05:25:37.708Z,-3.51
2023-02-28T05:26:42.714Z,-3.44
2023-02-28T05:29:12.180Z,-3.47
2023-02-28T05:30:37.762Z,-3.47
2023-02-28T05:31:38.687Z,-3.50
2023-02-28T05:34:05.533Z,-3.98
2023-02-28T05:35:37.805Z,-3.98
2023-02-28T05:36:32.598Z,-3.55
2023-02-28T05:38:59.057Z,-4.78
2023-02-28T05:40:37.674Z,-4.78
2023-02-28T05:41:27.022Z,-3.55
2023-02-28T05:43:53.585Z,-3.44
2023-02-28T05:45:37.713Z,-3.44
2023-02-28T05:46:20.044Z,-3.47
2023-02-28T05:48:48.616Z,-3.97
2023-02-28T05:50:37.683Z,-3.97
2023-02-28T05:51:15.282Z,-3.67
2023-02-28T05:53:41.667Z,-3.47
2023-02-28T05:55:37.697Z,-3.47
2023-02-28T05:56:10.138Z,-3.46
2023-02-28T05:58:36.514Z,-3.95
2023-02-28T06:00:37.689Z,-3.95
2023-02-28T06:01:35.519Z,-3.58
2023-02-28T06:04:03.118Z,-4.29
2023-02-28T06:05:37.711Z,-4.29
2023-02-28T06:06:36.906Z,-3.78
2023-02-28T06:09:06.052Z,-4.06
2023-02-28T06:10:37.669Z,-4.06
2023-02-28T06:11:33.069Z,-3.82
2023-02-28T06:14:01.383Z,-3.88
2023-02-28T06:15:37.690Z,-3.88
2023-02-28T06:16:31.258Z,-3.85
2023-02-28T06:19:03.843Z,-3.93
2023-02-28T06:20:37.684Z,-3.93
2023-02-28T06:21:31.039Z,-4.01
2023-02-28T06:23:58.753Z,-3.51
2023-02-28T06:25:37.693Z,-3.51
2023-02-28T06:26:26.352Z,-3.99
2023-02-28T06:28:52.863Z,-3.60
2023-02-28T06:30:37.698Z,-3.60
2023-02-28T06:31:19.913Z,-3.44
2023-02-28T06:33:47.223Z,-3.41
2023-02-28T06:35:37.722Z,-3.41
2023-02-28T06:36:14.944Z,-3.35
2023-02-28T06:38:42.045Z,-5.07
2023-02-28T06:40:37.724Z,-5.07
2023-02-28T06:41:09.394Z,-3.97
2023-02-28T06:43:40.223Z,-3.52
2023-02-28T06:45:37.724Z,-3.52
2023-02-28T06:46:09.098Z,-3.35
2023-02-28T06:48:36.189Z,-3.85
2023-02-28T06:50:37.693Z,-3.85
2023-02-28T06:51:12.671Z,-3.18
2023-02-28T06:53:39.459Z,-3.16
2023-02-28T06:55:37.721Z,-3.16
2023-02-28T06:56:08.385Z,-3.07
2023-02-28T06:58:35.701Z,-3.08
2023-02-28T07:00:37.704Z,-3.08
2023-02-28T07:01:03.142Z,-3.03
2023-02-28T07:03:29.633Z,-2.88
2023-02-28T07:05:37.750Z,-2.88
2023-02-28T07:05:57.400Z,-2.98
2023-02-28T07:08:29.240Z,-3.18
2023-02-28T07:10:37.694Z,-3.18
2023-02-28T07:10:56.264Z,-2.96
2023-02-28T07:13:23.638Z,-2.83
2023-02-28T07:15:40.586Z,-2.83
2023-02-28T07:16:01.782Z,-2.23
2023-02-28T07:18:28.664Z,-2.33
2023-02-28T07:20:37.713Z,-2.33
2023-02-28T07:20:55.468Z,-2.51
2023-02-28T07:23:22.642Z,-1.96
2023-02-28T07:25:37.749Z,-1.96
2023-02-28T07:25:50.575Z,-1.97
2023-02-28T07:28:17.081Z,-1.74
2023-02-28T07:30:37.709Z,-1.74
2023-02-28T07:30:43.722Z,-1.65
2023-02-28T07:33:12.523Z,-1.52
2023-02-28T07:35:39.030Z,-1.87
2023-02-28T07:35:39.228Z,-1.87
2023-02-28T07:38:05.612Z,-1.92
2023-02-28T07:40:32.041Z,-1.25
2023-02-28T07:40:37.691Z,-1.25
2023-02-28T07:43:00.851Z,-1.16
2023-02-28T07:45:29.644Z,-1.09
2023-02-28T07:45:37.677Z,-1.09
2023-02-28T07:47:56.867Z,-1.11
2023-02-28T07:50:27.084Z,-1.31
2023-02-28T07:50:37.775Z,-1.31
2023-02-28T07:52:53.784Z,-1.31
2023-02-28T07:55:20.240Z,-1.04
2023-02-28T07:55:37.790Z,-1.04
2023-02-28T07:57:46.656Z,-0.79
2023-02-28T08:00:14.481Z,-0.66
2023-02-28T08:00:37.809Z,-0.66
2023-02-28T08:02:41.196Z,-0.55
2023-02-28T08:05:08.710Z,-0.49
2023-02-28T08:05:37.721Z,-0.49
2023-02-28T08:07:35.189Z,-0.68
2023-02-28T08:10:01.770Z,-0.68
2023-02-28T08:10:37.760Z,-0.68
2023-02-28T08:12:28.099Z,-0.40
2023-02-28T08:14:54.416Z,-0.51
2023-02-28T08:15:37.728Z,-0.51
2023-02-28T08:17:20.814Z,-0.33
2023-02-28T08:19:47.837Z,-0.44
2023-02-28T08:20:37.751Z,-0.44
2023-02-28T08:22:14.647Z,0.13
2023-02-28T08:24:43.542Z,0.23
2023-02-28T08:25:37.749Z,0.23
2023-02-28T08:27:10.245Z,-0.94
2023-02-28T08:29:40.286Z,-0.04
2023-02-28T08:30:37.723Z,-0.04
2023-02-28T08:32:14.587Z,0.52
2023-02-28T08:34:47.993Z,0.73
2023-02-28T08:35:37.784Z,0.73
2023-02-28T08:37:14.678Z,-0.35
2023-02-28T08:39:41.036Z,0.80
2023-02-28T08:40:37.725Z,0.80
2023-02-28T08:42:08.221Z,0.53
2023-02-28T08:44:35.011Z,1.08
2023-02-28T08:45:37.737Z,1.08
2023-02-28T08:47:01.309Z,0.78
2023-02-28T08:49:27.807Z,1.11
2023-02-28T08:50:37.735Z,1.11
2023-02-28T08:51:55.123Z,1.22
2023-02-28T08:54:22.586Z,1.30
2023-02-28T08:55:37.745Z,1.30
2023-02-28T08:56:49.005Z,1.28
2023-02-28T08:59:15.618Z,1.41
2023-02-28T09:00:37.775Z,1.41
2023-02-28T09:01:42.835Z,1.52
2023-02-28T09:04:10.807Z,1.08
2023-02-28T09:05:37.717Z,1.08
2023-02-28T09:06:37.673Z,1.49
2023-02-28T09:09:06.930Z,1.50
2023-02-28T09:10:37.828Z,1.50
2023-02-28T09:11:33.386Z,1.45
2023-02-28T09:14:04.241Z,1.68
2023-02-28T09:15:37.692Z,1.68
2023-02-28T09:16:33.020Z,1.93
2023-02-28T09:19:00.153Z,2.06
2023-02-28T09:20:37.758Z,2.06
2023-02-28T09:21:27.121Z,1.97
2023-02-28T09:23:54.136Z,1.94
2023-02-28T09:25:37.756Z,1.94
2023-02-28T09:26:25.464Z,1.75
2023-02-28T09:28:52.914Z,2.22
2023-02-28T09:30:37.790Z,2.22
2023-02-28T09:31:25.351Z,2.15
2023-02-28T09:33:54.491Z,2.25
2023-02-28T09:35:37.758Z,2.25
2023-02-28T09:36:24.846Z,2.36
2023-02-28T09:38:53.883Z,2.34
2023-02-28T09:40:37.701Z,2.34
2023-02-28T09:41:23.891Z,2.37
2023-02-28T09:43:57.008Z,2.25
2023-02-28T09:45:37.727Z,2.25
2023-02-28T09:46:34.999Z,2.69
2023-02-28T09:49:07.691Z,2.60
2023-02-28T09:50:37.771Z,2.60
2023-02-28T09:51:45.082Z,2.13
2023-02-28T09:54:20.442Z,2.67
2023-02-28T09:55:45.203Z,2.67
2023-02-28T09:56:55.146Z,2.81
2023-02-28T09:59:55.519Z,2.05
2023-02-28T10:00:37.709Z,2.05
2023-02-28T10:02:49.921Z,2.37
2023-02-28T10:05:22.539Z,2.53
2023-02-28T10:05:37.726Z,2.53
2023-02-28T10:08:00.107Z,2.67
2023-02-28T10:10:39.305Z,2.56
2023-02-28T10:10:39.449Z,2.56
2023-02-28T10:13:14.175Z,2.46
2023-02-28T10:15:37.769Z,2.46
2023-02-28T10:15:42.532Z,2.41
2023-02-28T10:18:16.202Z,2.80
2023-02-28T10:20:37.740Z,2.80
2023-02-28T10:20:44.575Z,2.88
2023-02-28T10:23:28.364Z,2.82
2023-02-28T10:25:37.706Z,2.82
2023-02-28T10:26:16.972Z,2.57
2023-02-28T10:28:44.160Z,2.73
2023-02-28T10:30:37.713Z,2.73
2023-02-28T10:31:19.716Z,2.84
2023-02-28T10:33:46.760Z,2.75
2023-02-28T10:35:38.036Z,2.75
2023-02-28T10:36:17.457Z,2.89
2023-02-28T10:38:45.758Z,2.98
2023-02-28T10:40:37.718Z,2.98
2023-02-28T10:41:18.449Z,3.03
2023-02-28T10:43:48.300Z,2.87
2023-02-28T10:45:37.737Z,2.87
2023-02-28T10:46:26.877Z,3.12
2023-02-28T10:49:06.350Z,3.43
2023-02-28T10:50:37.747Z,3.43
2023-02-28T10:51:39.211Z,3.11
2023-02-28T10:54:06.315Z,3.46
2023-02-28T10:55:37.749Z,49.26
2023-02-28T10:56:33.818Z,3.25
2023-02-28T10:59:01.983Z,2.83
2023-02-28T11:00:37.765Z,2.83
2023-02-28T11:01:31.553Z,2.93
2023-02-28T11:03:59.973Z,3.12
2023-02-28T11:05:37.736Z,3.12
2023-02-28T11:06:35.332Z,2.77
2023-02-28T11:09:03.706Z,3.14
2023-02-28T11:10:37.736Z,3.14
2023-02-28T11:11:42.032Z,3.18
2023-02-28T11:14:21.143Z,2.08
2023-02-28T11:15:37.886Z,2.08
2023-02-28T11:16:48.366Z,2.68
2023-02-28T11:19:23.214Z,2.40
2023-02-28T11:20:37.739Z,2.40
2023-02-28T11:21:56.466Z,2.84
2023-02-28T11:24:31.514Z,2.97
2023-02-28T11:25:37.739Z,2.97
2023-02-28T11:26:58.109Z,2.58
2023-02-28T11:29:25.867Z,2.81
2023-02-28T11:30:37.727Z,2.81
2023-02-28T11:32:01.780Z,3.04
2023-02-28T11:34:29.433Z,3.07
2023-02-28T11:35:37.805Z,3.07
2023-02-28T11:36:57.976Z,2.56
2023-02-28T11:39:26.214Z,2.40
2023-02-28T11:40:37.728Z,2.40
2023-02-28T11:42:17.194Z,2.86
2023-02-28T11:45:12.327Z,3.07
2023-02-28T11:45:37.733Z,3.07
2023-02-28T11:47:48.334Z,3.27
2023-02-28T11:50:23.301Z,3.45
2023-02-28T11:50:37.708Z,3.45
2023-02-28T11:52:55.270Z,3.08
2023-02-28T11:55:28.848Z,2.91
2023-02-28T11:55:37.732Z,2.91
2023-02-28T11:58:30.659Z,3.49
2023-02-28T12:00:37.736Z,3.49
2023-02-28T12:01:07.408Z,3.27
2023-02-28T12:03:49.086Z,3.68
2023-02-28T12:05:37.842Z,3.68
2023-02-28T12:06:44.590Z,3.45
2023-02-28T12:09:40.028Z,3.32
2023-02-28T12:10:37.712Z,3.32
2023-02-28T12:12:20.903Z,3.14
2023-02-28T12:15:17.818Z,2.67
2023-02-28T12:15:37.753Z,2.67
2023-02-28T12:18:00.246Z,3.77
2023-02-28T12:20:38.063Z,3.25
2023-02-28T12:20:38.750Z,3.25
2023-02-28T12:23:32.242Z,3.39
2023-02-28T12:25:37.728Z,3.39
2023-02-28T12:26:11.728Z,2.88
2023-02-28T12:28:44.145Z,2.87
2023-02-28T12:30:37.716Z,2.87
2023-02-28T12:31:53.203Z,2.58
2023-02-28T12:34:45.756Z,3.44
2023-02-28T12:35:37.770Z,3.44
2023-02-28T12:37:21.291Z,3.78
2023-02-28T12:39:53.613Z,3.76
2023-02-28T12:40:37.741Z,3.76
2023-02-28T12:42:32.646Z,3.96
2023-02-28T12:45:14.058Z,2.69
2023-02-28T12:45:37.866Z,2.69
2023-02-28T12:47:43.186Z,3.99
2023-02-28T12:50:12.588Z,4.20
2023-02-28T12:50:37.706Z,4.20
2023-02-28T12:53:04.170Z,4.09
2023-02-28T12:55:53.298Z,4.42
2023-02-28T12:55:53.439Z,4.42
2023-02-28T12:58:51.875Z,4.24
2023-02-28T13:00:37.734Z,4.24
2023-02-28T13:01:32.143Z,4.92
2023-02-28T13:04:04.538Z,4.81
2023-02-28T13:05:37.752Z,4.81
2023-02-28T13:06:46.387Z,5.13
2023-02-28T13:09:16.746Z,4.98
2023-02-28T13:10:37.728Z,4.98
2023-02-28T13:11:52.034Z,5.03
2023-02-28T13:14:29.292Z,5.00
2023-02-28T13:15:37.764Z,5.00
2023-02-28T13:17:15.182Z,4.76
2023-02-28T13:19:46.476Z,4.68
2023-02-28T13:20:37.779Z,4.68
2023-02-28T13:22:40.610Z,4.60
2023-02-28T13:25:22.438Z,4.60
2023-02-28T13:25:37.811Z,4.60
2023-02-28T13:27:55.336Z,4.67
2023-02-28T13:30:53.425Z,4.64
2023-02-28T13:30:53.777Z,4.64
2023-02-28T13:33:29.913Z,4.79
2023-02-28T13:35:37.983Z,4.79
2023-02-28T13:36:14.533Z,4.59
2023-02-28T13:38:46.239Z,4.59
2023-02-28T13:40:38.200Z,4.59
2023-02-28T13:41:31.639Z,4.65
2023-02-28T13:44:11.396Z,4.85
2023-02-28T13:45:37.898Z,4.85
2023-02-28T13:46:57.768Z,5.22
2023-02-28T13:49:24.172Z,5.17
2023-02-28T13:50:37.909Z,5.17
2023-02-28T13:52:01.810Z,4.16
2023-02-28T13:54:52.286Z,5.39
2023-02-28T13:55:37.936Z,5.39
2023-02-28T13:57:46.429Z,5.42
2023-02-28T14:00:46.896Z,5.34
2023-02-28T14:00:47.060Z,5.34
2023-02-28T14:03:52.090Z,5.53
2023-02-28T14:05:37.880Z,5.53
2023-02-28T14:06:33.180Z,5.25
2023-02-28T14:09:12.725Z,5.02
2023-02-28T14:10:37.890Z,5.02
2023-02-28T14:11:41.372Z,5.15
2023-02-28T14:14:10.443Z,5.07
2023-02-28T14:15:37.966Z,5.07
2023-02-28T14:16:44.850Z,4.79
2023-02-28T14:19:13.809Z,5.27
2023-02-28T14:20:37.903Z,5.27
2023-02-28T14:21:52.387Z,5.09
2023-02-28T14:24:48.953Z,5.57
2023-02-28T14:25:37.903Z,5.57
2023-02-28T14:27:49.104Z,5.31
2023-02-28T14:30:41.552Z,5.37
2023-02-28T14:30:41.705Z,5.37
2023-02-28T14:33:30.011Z,5.33
2023-02-28T14:35:37.945Z,5.33
2023-02-28T14:35:59.030Z,5.49
2023-02-28T14:38:30.946Z,5.42
2023-02-28T14:40:38.072Z,5.42
2023-02-28T14:40:59.390Z,5.52
2023-02-28T14:43:28.661Z,5.37
2023-02-28T14:45:37.900Z,5.37
2023-02-28T14:45:58.493Z,5.19
2023-02-28T14:48:26.941Z,4.84
2023-02-28T14:50:37.906Z,4.84
2023-02-28T14:50:57.210Z,4.67
2023-02-28T14:53:28.381Z,4.84
2023-02-28T14:55:37.905Z,4.84
2023-02-28T14:55:55.085Z,4.93
2023-02-28T14:58:23.378Z,5.05
2023-02-28T15:00:37.901Z,5.05
2023-02-28T15:00:53.587Z,5.02
2023-02-28T15:03:48.151Z,4.70
2023-02-28T15:05:37.911Z,4.70
2023-02-28T15:06:18.710Z,5.03
2023-02-28T15:08:46.295Z,4.96
2023-02-28T15:10:37.927Z,4.96
2023-02-28T15:11:20.150Z,4.89
2023-02-28T15:13:56.463Z,4.87
2023-02-28T15:15:45.993Z,4.87
2023-02-28T15:16:26.838Z,4.52
2023-02-28T15:18:55.144Z,4.87
2023-02-28T15:20:37.901Z,4.87
2023-02-28T15:21:33.414Z,4.86
2023-02-28T15:24:08.151Z,4.60
2023-02-28T15:25:38.962Z,4.60
2023-02-28T15:26:39.598Z,4.75
2023-02-28T15:29:09.105Z,4.36
2023-02-28T15:30:37.889Z,4.36
2023-02-28T15:31:55.859Z,4.84
2023-02-28T15:34:42.941Z,4.55
2023-02-28T15:35:37.969Z,4.55
2023-02-28T15:37:46.481Z,4.87
2023-02-28T15:40:24.739Z,4.86
2023-02-28T15:40:37.903Z,4.86
2023-02-28T15:43:16.365Z,4.85
2023-02-28T15:45:37.905Z,4.85
2023-02-28T15:45:48.022Z,4.69
2023-02-28T15:48:30.625Z,4.75
2023-02-28T15:50:37.929Z,4.75
2023-02-28T15:51:37.436Z,4.64
2023-02-28T15:54:10.879Z,4.32
2023-02-28T15:55:37.916Z,4.32
2023-02-28T15:56:45.476Z,4.46
2023-02-28T15:59:22.440Z,4.43
2023-02-28T16:00:37.976Z,4.43
2023-02-28T16:02:04.234Z,4.27
2023-02-28T16:04:32.515Z,3.22
2023-02-28T16:05:37.928Z,3.22
2023-02-28T16:06:58.818Z,4.17
2023-02-28T16:09:25.446Z,4.01
2023-02-28T16:10:37.893Z,4.01
2023-02-28T16:11:55.859Z,4.03
2023-02-28T16:14:26.267Z,3.75
2023-02-28T16:15:37.892Z,3.75
2023-02-28T16:16:55.752Z,2.57
2023-02-28T16:19:22.631Z,3.87
2023-02-28T16:20:37.896Z,3.87
2023-02-28T16:21:49.454Z,3.77
2023-02-28T16:24:15.984Z,3.30
2023-02-28T16:25:37.914Z,3.30
2023-02-28T16:26:46.297Z,3.58
2023-02-28T16:29:25.557Z,2.26
2023-02-28T16:30:38.081Z,2.26
2023-02-28T16:31:51.943Z,3.15
2023-02-28T16:34:18.318Z,3.43
2023-02-28T16:35:37.884Z,3.43
2023-02-28T16:36:48.084Z,3.39
2023-02-28T16:39:14.890Z,2.94
2023-02-28T16:40:37.917Z,2.94
2023-02-28T16:41:45.332Z,3.11
2023-02-28T16:44:33.715Z,2.48
2023-02-28T16:45:38.112Z,2.48
2023-02-28T16:47:04.680Z,3.19
2023-02-28T16:49:31.762Z,2.63
2023-02-28T16:50:37.921Z,2.63
2023-02-28T16:51:58.403Z,2.83
2023-02-28T16:54:24.813Z,2.99
2023-02-28T16:55:38.939Z,2.99
2023-02-28T16:56:51.287Z,2.95
2023-02-28T16:59:23.050Z,2.91
2023-02-28T17:00:37.882Z,2.91
2023-02-28T17:01:50.439Z,2.77
2023-02-28T17:04:17.393Z,2.63
2023-02-28T17:05:37.920Z,2.63
2023-02-28T17:06:44.081Z,2.51
2023-02-28T17:09:17.625Z,2.39
2023-02-28T17:10:37.931Z,2.39
2023-02-28T17:11:44.440Z,1.95
2023-02-28T17:14:11.005Z,2.31
2023-02-28T17:15:38.262Z,2.31
2023-02-28T17:16:40.957Z,2.39
2023-02-28T17:19:11.921Z,1.58
2023-02-28T17:20:37.869Z,1.58
2023-02-28T17:21:38.661Z,2.25
2023-02-28T17:24:05.440Z,0.58
2023-02-28T17:25:37.894Z,0.58
2023-02-28T17:26:32.634Z,2.14
2023-02-28T17:28:59.434Z,1.53
2023-02-28T17:30:37.933Z,1.53
2023-02-28T17:31:27.153Z,2.09
2023-02-28T17:33:57.627Z,1.90
2023-02-28T17:35:37.976Z,1.90
2023-02-28T17:36:27.355Z,2.06
2023-02-28T17:38:56.094Z,0.54
2023-02-28T17:40:37.922Z,0.54
2023-02-28T17:41:23.023Z,2.01
2023-02-28T17:43:51.117Z,1.66
2023-02-28T17:45:37.899Z,1.66
2023-02-28T17:46:23.578Z,1.29
2023-02-28T17:48:51.707Z,1.22
2023-02-28T17:50:37.913Z,1.22
2023-02-28T17:51:20.584Z,0.06
2023-02-28T17:53:47.032Z,1.43
2023-02-28T17:55:37.903Z,1.43
2023-02-28T17:56:16.367Z,0.95
2023-02-28T17:58:42.840Z,0.90
2023-02-28T18:00:39.035Z,0.90
2023-02-28T18:01:09.354Z,1.03
2023-02-28T18:03:35.831Z,-0.06
2023-02-28T18:05:38.226Z,-0.06
2023-02-28T18:06:03.372Z,1.27
2023-02-28T18:08:29.909Z,0.23
2023-02-28T18:10:37.910Z,0.23
2023-02-28T18:10:56.299Z,1.36
2023-02-28T18:13:22.696Z,0.82
2023-02-28T18:15:39.324Z,0.82
2023-02-28T18:15:49.237Z,1.29
2023-02-28T18:18:16.630Z,1.18
2023-02-28T18:20:37.926Z,1.18
2023-02-28T18:20:45.216Z,0.04
2023-02-28T18:23:11.870Z,0.64
2023-02-28T18:25:41.512Z,0.81
2023-02-28T18:25:41.714Z,0.81
2023-02-28T18:28:07.979Z,1.17
2023-02-28T18:30:37.647Z,0.16
2023-02-28T18:30:37.997Z,0.16
2023-02-28T18:33:04.245Z,-0.31
2023-02-28T18:35:35.056Z,0.58
2023-02-28T18:35:38.011Z,0.58
2023-02-28T18:38:10.856Z,1.10
2023-02-28T18:40:37.712Z,0.21
2023-02-28T18:40:37.952Z,0.21
2023-02-28T18:43:04.539Z,-0.04
2023-02-28T18:45:32.444Z,0.90
2023-02-28T18:45:37.937Z,0.90
2023-02-28T18:47:59.010Z,0.92
2023-02-28T18:50:25.526Z,-0.17
2023-02-28T18:50:37.967Z,-0.17
2023-02-28T18:52:51.918Z,0.69
2023-02-28T18:55:19.009Z,0.54
2023-02-28T18:55:37.923Z,0.54
2023-02-28T18:57:47.140Z,0.38
2023-02-28T19:00:19.583Z,0.34
2023-02-28T19:00:38.028Z,0.34
2023-02-28T19:02:45.961Z,0.30
2023-02-28T19:05:12.521Z,0.42
2023-02-28T19:05:37.954Z,0.42
2023-02-28T19:07:39.337Z,0.32
2023-02-28T19:10:06.361Z,0.58
2023-02-28T19:10:37.908Z,0.58
2023-02-28T19:12:37.270Z,-0.24
2023-02-28T19:15:05.475Z,0.66
2023-02-28T19:15:37.947Z,0.66
2023-02-28T19:17:32.331Z,0.21
2023-02-28T19:19:59.031Z,0.71
2023-02-28T19:20:37.939Z,0.71
2023-02-28T19:22:26.334Z,0.61
2023-02-28T19:24:52.935Z,0.02
2023-02-28T19:25:37.949Z,0.02
2023-02-28T19:27:19.924Z,0.46
2023-02-28T19:29:51.429Z,-0.11
2023-02-28T19:30:37.968Z,-0.11
2023-02-28T19:32:21.077Z,0.09
2023-02-28T19:34:47.785Z,0.38
2023-02-28T19:35:37.971Z,0.38
2023-02-28T19:37:14.422Z,-0.59
2023-02-28T19:39:46.359Z,0.39
2023-02-28T19:40:37.998Z,0.39
2023-02-28T19:42:15.939Z,0.24
2023-02-28T19:44:42.701Z,-0.73
2023-02-28T19:45:38.005Z,-0.73
2023-02-28T19:47:09.884Z,-0.31
2023-02-28T19:49:36.490Z,0.30
2023-02-28T19:50:37.937Z,0.30
2023-02-28T19:52:03.707Z,0.19
2023-02-28T19:54:30.484Z,-0.02
2023-02-28T19:55:37.937Z,-0.02
2023-02-28T19:56:58.453Z,0.16
2023-02-28T19:59:31.328Z,-0.43
2023-02-28T20:00:37.960Z,-0.43
2023-02-28T20:02:06.765Z,0.10
2023-02-28T20:04:33.220Z,-0.32
2023-02-28T20:05:37.947Z,-0.32
2023-02-28T20:06:59.581Z,-0.22
2023-02-28T20:09:31.497Z,-0.30
2023-02-28T20:10:37.929Z,-0.30
2023-02-28T20:11:59.452Z,-0.15
2023-02-28T20:14:26.384Z,-0.49
2023-02-28T20:15:37.950Z,-0.49
2023-02-28T20:19:46.978Z,-0.65
2023-02-28T20:20:37.985Z,-0.65
2023-02-28T20:22:13.436Z,-0.36
2023-02-28T20:24:39.790Z,-1.22
2023-02-28T20:25:37.976Z,-1.22
2023-02-28T20:27:06.312Z,-0.73
2023-02-28T20:29:34.486Z,-0.11
2023-02-28T20:30:38.014Z,-0.11
2023-02-28T20:32:01.125Z,-0.15
2023-02-28T20:34:27.747Z,-0.53
2023-02-28T20:35:37.999Z,-0.53
2023-02-28T20:36:56.438Z,-0.81
2023-02-28T20:39:23.628Z,-0.15
2023-02-28T20:40:37.948Z,-0.15
2023-02-28T20:41:50.274Z,-0.10
2023-02-28T20:44:16.697Z,-0.79
2023-02-28T20:45:37.977Z,-0.79
2023-02-28T20:46:43.791Z,-1.12
2023-02-28T20:49:10.529Z,-1.38
2023-02-28T20:50:37.945Z,-1.38
2023-02-28T20:51:39.974Z,-0.26
2023-02-28T20:54:08.260Z,-0.49
2023-02-28T20:55:38.024Z,-0.49
2023-02-28T20:56:34.950Z,-0.64
2023-02-28T20:59:01.338Z,-1.16
2023-02-28T21:00:37.994Z,-1.16
2023-02-28T21:01:29.612Z,-1.12
2023-02-28T21:04:01.895Z,-0.77
2023-02-28T21:05:37.954Z,-0.77
2023-02-28T21:06:31.581Z,-1.39
2023-02-28T21:08:58.717Z,-1.64
2023-02-28T21:10:37.953Z,-1.64
2023-02-28T21:11:28.944Z,-0.81
2023-02-28T21:13:55.813Z,-0.76
2023-02-28T21:15:38.029Z,-0.76
2023-02-28T21:16:24.154Z,-0.74
2023-02-28T21:18:50.817Z,-0.93
2023-02-28T21:20:38.034Z,-0.93
2023-02-28T21:21:19.691Z,-0.77
2023-02-28T21:23:47.523Z,-0.78
2023-02-28T21:25:37.964Z,-0.78
2023-02-28T21:26:17.155Z,-0.82
2023-02-28T21:28:46.431Z,-1.42
2023-02-28T21:30:37.960Z,-1.42
2023-02-28T21:31:15.159Z,-1.06
2023-02-28T21:33:41.993Z,-0.98
2023-02-28T21:35:38.021Z,-0.98
2023-02-28T21:36:16.996Z,-1.56
2023-02-28T21:38:44.677Z,-1.02
2023-02-28T21:40:38.085Z,-1.02
2023-02-28T21:41:15.342Z,-1.86
2023-02-28T21:43:42.332Z,-1.38
2023-02-28T21:45:37.945Z,-1.38
2023-02-28T21:46:12.757Z,-1.02
2023-02-28T21:48:40.253Z,-1.04
2023-02-28T21:50:37.974Z,-1.04
2023-02-28T21:51:12.082Z,-1.05
2023-02-28T21:53:39.524Z,-1.02
2023-02-28T21:55:37.954Z,-1.02
2023-02-28T21:56:09.099Z,-1.52
2023-02-28T21:58:35.580Z,-1.63
2023-02-28T22:00:38.044Z,-1.63
2023-02-28T22:01:11.056Z,-1.03